sensor_id;sensor_type;location;lat;lon;timestamp;pressure;altitude;pressure_sealevel;temperature;humidity
19086;BME280;9675;51.538;6.728;2023-03-14T00:00:52;98741.56;;;12.21;100.00
19086;BME280;9675;51.538;6.728;2023-03-14T00:03:19;98732.06;;;12.20;100.00
19086;BME280;9675;51.538;6.728;2023-03-14T00:05:46;98737.22;;;12.20;100.00
19086;BME280;9675;51.538;6.728;2023-03-14T00:08:13;98727.75;;;12.19;100.00
19086;BME280;9675;51.538;6.728;2023-03-14T00:10:40;98719.16;;;12.17;100.00
19086;BME280;9675;51.538;6.728;2023-03-14T00:13:08;98711.41;;;12.16;100.00
19086;BME280;9675;51.538;6.728;2023-03-14T00:15:36;98693.34;;;12.16;100.00
19086;BME280;9675;51.538;6.728;2023-03-14T00:18:03;98694.16;;;12.13;100.00
19086;BME280;9675;51.538;6.728;2023-03-14T00:20:30;98685.56;;;12.14;100.00
19086;BME280;9675;51.538;6.728;2023-03-14T00:22:57;98672.66;;;12.14;100.00
19086;BME280;9675;51.538;6.728;2023-03-14T00:25:24;98675.22;;;12.13;100.00
19086;BME280;9675;51.538;6.728;2023-03-14T00:27:51;98681.25;;;12.10;100.00
19086;BME280;9675;51.538;6.728;2023-03-14T00:30:19;98686.41;;;12.10;100.00
19086;BME280;9675;51.538;6.728;2023-03-14T00:32:47;98687.22;;;12.08;100.00
19086;BME280;9675;51.538;6.728;2023-03-14T00:35:15;98682.06;;;12.08;100.00
19086;BME280;9675;51.538;6.728;2023-03-14T00:37:42;98707.00;;;12.07;100.00
19086;BME280;9675;51.538;6.728;2023-03-14T00:40:10;98717.31;;;12.04;100.00
19086;BME280;9675;51.538;6.728;2023-03-14T00:42:37;98705.25;;;12.03;100.00
19086;BME280;9675;51.538;6.728;2023-03-14T00:45:06;98714.72;;;12.01;100.00
19086;BME280;9675;51.538;6.728;2023-03-14T00:47:34;98706.06;;;11.98;100.00
19086;BME280;9675;51.538;6.728;2023-03-14T00:50:03;98709.47;;;11.93;100.00
19086;BME280;9675;51.538;6.728;2023-03-14T00:52:30;98712.00;;;11.92;100.00
19086;BME280;9675;51.538;6.728;2023-03-14T00:54:57;98720.63;;;11.91;100.00
19086;BME280;9675;51.538;6.728;2023-03-14T00:57:24;98713.69;;;11.87;100.00
19086;BME280;9675;51.538;6.728;2023-03-14T00:59:51;98715.41;;;11.85;100.00
19086;BME280;9675;51.538;6.728;2023-03-14T01:02:19;98717.13;;;11.84;100.00
19086;BME280;9675;51.538;6.728;2023-03-14T01:04:47;98723.09;;;11.80;100.00
19086;BME280;9675;51.538;6.728;2023-03-14T01:07:16;98726.47;;;11.75;100.00
19086;BME280;9675;51.538;6.728;2023-03-14T01:09:43;98723.03;;;11.74;100.00
19086;BME280;9675;51.538;6.728;2023-03-14T01:12:10;98722.94;;;11.71;100.00
19086;BME280;9675;51.538;6.728;2023-03-14T01:14:37;98723.78;;;11.69;100.00
19086;BME280;9675;51.538;6.728;2023-03-14T01:17:04;98718.63;;;11.66;100.00
19086;BME280;9675;51.538;6.728;2023-03-14T01:19:31;98728.91;;;11.64;100.00
19086;BME280;9675;51.538;6.728;2023-03-14T01:21:58;98733.16;;;11.62;100.00
19086;BME280;9675;51.538;6.728;2023-03-14T01:24:27;98726.25;;;11.58;100.00
19086;BME280;9675;51.538;6.728;2023-03-14T01:26:54;98720.19;;;11.56;100.00
19086;BME280;9675;51.538;6.728;2023-03-14T01:29:21;98723.63;;;11.54;100.00
19086;BME280;9675;51.538;6.728;2023-03-14T01:31:48;98723.56;;;11.50;100.00
19086;BME280;9675;51.538;6.728;2023-03-14T01:34:15;98721.84;;;11.48;100.00
19086;BME280;9675;51.538;6.728;2023-03-14T01:36:42;98727.00;;;11.48;100.00
19086;BME280;9675;51.538;6.728;2023-03-14T01:39:09;98714.06;;;11.43;100.00
19086;BME280;9675;51.538;6.728;2023-03-14T01:41:37;98700.31;;;11.43;100.00
19086;BME280;9675;51.538;6.728;2023-03-14T01:44:04;98713.16;;;11.41;100.00
19086;BME280;9675;51.538;6.728;2023-03-14T01:46:38;98707.97;;;11.38;100.00
19086;BME280;9675;51.538;6.728;2023-03-14T01:49:14;98707.06;;;11.33;100.00
19086;BME280;9675;51.538;6.728;2023-03-14T01:51:51;98706.16;;;11.31;100.00
19086;BME280;9675;51.538;6.728;2023-03-14T01:54:25;98706.16;;;11.28;100.00
19086;BME280;9675;51.538;6.728;2023-03-14T01:57:03;98694.09;;;11.27;100.00
19086;BME280;9675;51.538;6.728;2023-03-14T01:59:32;98707.78;;;11.25;100.00
19086;BME280;9675;51.538;6.728;2023-03-14T02:02:01;98696.56;;;11.20;100.00
19086;BME280;9675;51.538;6.728;2023-03-14T02:04:32;98700.84;;;11.19;100.00
19086;BME280;9675;51.538;6.728;2023-03-14T02:07:09;98705.97;;;11.16;100.00
19086;BME280;9675;51.538;6.728;2023-03-14T02:09:39;98707.66;;;11.14;100.00
19086;BME280;9675;51.538;6.728;2023-03-14T02:12:08;98703.34;;;11.12;100.00
19086;BME280;9675;51.538;6.728;2023-03-14T02:14:37;98696.44;;;11.07;100.00
19086;BME280;9675;51.538;6.728;2023-03-14T02:17:06;98695.56;;;11.07;100.00
19086;BME280;9675;51.538;6.728;2023-03-14T02:19:55;98692.09;;;11.05;100.00
19086;BME280;9675;51.538;6.728;2023-03-14T02:22:27;98693.81;;;11.03;100.00
19086;BME280;9675;51.538;6.728;2023-03-14T02:25:03;98691.22;;;11.03;100.00
19086;BME280;9675;51.538;6.728;2023-03-14T02:27:36;98683.47;;;11.01;100.00
19086;BME280;9675;51.538;6.728;2023-03-14T02:30:07;98695.50;;;11.01;100.00
19086;BME280;9675;51.538;6.728;2023-03-14T02:32:41;98701.44;;;10.98;100.00
19086;BME280;9675;51.538;6.728;2023-03-14T02:35:12;98699.75;;;10.97;100.00
19086;BME280;9675;51.538;6.728;2023-03-14T02:37:45;98696.28;;;10.95;100.00
19086;BME280;9675;51.538;6.728;2023-03-14T02:40:15;98700.56;;;10.95;100.00
19086;BME280;9675;51.538;6.728;2023-03-14T02:42:43;98701.38;;;10.94;100.00
19086;BME280;9675;51.538;6.728;2023-03-14T02:45:44;98695.38;;;10.92;100.00
19086;BME280;9675;51.538;6.728;2023-03-14T02:48:16;98700.47;;;10.89;100.00
19086;BME280;9675;51.538;6.728;2023-03-14T02:50:47;98698.75;;;10.88;100.00
19086;BME280;9675;51.538;6.728;2023-03-14T02:53:19;98703.91;;;10.88;100.00
19086;BME280;9675;51.538;6.728;2023-03-14T02:55:48;98709.03;;;10.86;100.00
19086;BME280;9675;51.538;6.728;2023-03-14T02:58:17;98706.41;;;10.85;100.00
19086;BME280;9675;51.538;6.728;2023-03-14T03:00:45;98697.81;;;10.83;100.00
19086;BME280;9675;51.538;6.728;2023-03-14T03:03:13;98696.94;;;10.81;100.00
19086;BME280;9675;51.538;6.728;2023-03-14T03:05:40;98704.66;;;10.81;100.00
19086;BME280;9675;51.538;6.728;2023-03-14T03:08:08;98694.31;;;10.79;100.00
19086;BME280;9675;51.538;6.728;2023-03-14T03:10:36;98694.34;;;10.81;100.00
19086;BME280;9675;51.538;6.728;2023-03-14T03:13:03;98684.00;;;10.78;100.00
19086;BME280;9675;51.538;6.728;2023-03-14T03:15:31;98680.59;;;10.77;100.00
19086;BME280;9675;51.538;6.728;2023-03-14T03:17:58;98679.72;;;10.77;100.00
19086;BME280;9675;51.538;6.728;2023-03-14T03:20:25;98678.84;;;10.78;100.00
19086;BME280;9675;51.538;6.728;2023-03-14T03:22:52;98673.69;;;10.76;100.00
19086;BME280;9675;51.538;6.728;2023-03-14T03:25:19;98674.50;;;10.74;100.00
19086;BME280;9675;51.538;6.728;2023-03-14T03:27:47;98671.94;;;10.72;100.00
19086;BME280;9675;51.538;6.728;2023-03-14T03:30:14;98673.66;;;10.75;100.00
19086;BME280;9675;51.538;6.728;2023-03-14T03:32:43;98666.78;;;10.74;100.00
19086;BME280;9675;51.538;6.728;2023-03-14T03:35:10;98655.66;;;10.75;100.00
19086;BME280;9675;51.538;6.728;2023-03-14T03:37:38;98651.34;;;10.72;100.00
19086;BME280;9675;51.538;6.728;2023-03-14T03:40:07;98659.03;;;10.71;100.00
19086;BME280;9675;51.538;6.728;2023-03-14T03:42:36;98651.31;;;10.71;100.00
19086;BME280;9675;51.538;6.728;2023-03-14T03:45:04;98641.84;;;10.70;100.00
19086;BME280;9675;51.538;6.728;2023-03-14T03:47:31;98641.00;;;10.69;100.00
19086;BME280;9675;51.538;6.728;2023-03-14T03:49:59;98652.13;;;10.68;100.00
19086;BME280;9675;51.538;6.728;2023-03-14T03:52:27;98645.25;;;10.65;100.00
19086;BME280;9675;51.538;6.728;2023-03-14T03:54:54;98649.53;;;10.65;100.00
19086;BME280;9675;51.538;6.728;2023-03-14T03:57:21;98648.69;;;10.68;100.00
19086;BME280;9675;51.538;6.728;2023-03-14T03:59:48;98640.97;;;10.66;100.00
19086;BME280;9675;51.538;6.728;2023-03-14T04:02:15;98634.94;;;10.65;100.00
19086;BME280;9675;51.538;6.728;2023-03-14T04:04:42;98646.09;;;10.66;100.00
19086;BME280;9675;51.538;6.728;2023-03-14T04:07:10;98647.81;;;10.65;100.00
19086;BME280;9675;51.538;6.728;2023-03-14T04:09:39;98647.81;;;10.65;100.00
19086;BME280;9675;51.538;6.728;2023-03-14T04:12:06;98640.91;;;10.63;100.00
19086;BME280;9675;51.538;6.728;2023-03-14T04:14:33;98653.81;;;10.64;100.00
19086;BME280;9675;51.538;6.728;2023-03-14T04:17:00;98654.63;;;10.63;100.00
19086;BME280;9675;51.538;6.728;2023-03-14T04:19:27;98652.06;;;10.63;100.00
19086;BME280;9675;51.538;6.728;2023-03-14T04:21:54;98650.31;;;10.62;100.00
19086;BME280;9675;51.538;6.728;2023-03-14T04:24:23;98645.19;;;10.62;100.00
19086;BME280;9675;51.538;6.728;2023-03-14T04:26:50;98633.19;;;10.61;100.00
19086;BME280;9675;51.538;6.728;2023-03-14T04:29:17;98629.75;;;10.62;100.00
19086;BME280;9675;51.538;6.728;2023-03-14T04:31:44;98634.03;;;10.60;100.00
19086;BME280;9675;51.538;6.728;2023-03-14T04:34:11;98628.00;;;10.60;100.00
19086;BME280;9675;51.538;6.728;2023-03-14T04:36:38;98634.00;;;10.59;100.00
19086;BME280;9675;51.538;6.728;2023-03-14T04:39:05;98624.56;;;10.59;100.00
19086;BME280;9675;51.538;6.728;2023-03-14T04:41:33;98626.25;;;10.57;100.00
19086;BME280;9675;51.538;6.728;2023-03-14T04:44:00;98627.94;;;10.55;100.00
19086;BME280;9675;51.538;6.728;2023-03-14T04:46:27;98620.22;;;10.55;100.00
19086;BME280;9675;51.538;6.728;2023-03-14T04:48:54;98620.16;;;10.52;100.00
19086;BME280;9675;51.538;6.728;2023-03-14T04:51:23;98620.16;;;10.52;100.00
19086;BME280;9675;51.538;6.728;2023-03-14T04:53:53;98611.56;;;10.49;100.00
19086;BME280;9675;51.538;6.728;2023-03-14T04:56:21;98623.53;;;10.48;100.00
19086;BME280;9675;51.538;6.728;2023-03-14T04:58:49;98625.25;;;10.46;100.00
19086;BME280;9675;51.538;6.728;2023-03-14T05:01:16;98626.09;;;10.45;100.00
19086;BME280;9675;51.538;6.728;2023-03-14T05:03:44;98619.19;;;10.41;100.00
19086;BME280;9675;51.538;6.728;2023-03-14T05:06:11;98619.16;;;10.40;100.00
19086;BME280;9675;51.538;6.728;2023-03-14T05:08:38;98617.44;;;10.40;100.00
19086;BME280;9675;51.538;6.728;2023-03-14T05:11:05;98616.53;;;10.38;100.00
19086;BME280;9675;51.538;6.728;2023-03-14T05:13:32;98616.50;;;10.37;100.00
19086;BME280;9675;51.538;6.728;2023-03-14T05:16:10;98612.22;;;10.36;100.00
19086;BME280;9675;51.538;6.728;2023-03-14T05:18:37;98607.06;;;10.34;100.00
19086;BME280;9675;51.538;6.728;2023-03-14T05:21:05;98601.84;;;10.31;100.00
19086;BME280;9675;51.538;6.728;2023-03-14T05:23:32;98599.22;;;10.25;100.00
19086;BME280;9675;51.538;6.728;2023-03-14T05:25:59;98600.06;;;10.24;100.00
19086;BME280;9675;51.538;6.728;2023-03-14T05:28:26;98597.44;;;10.22;100.00
19086;BME280;9675;51.538;6.728;2023-03-14T05:30:54;98596.59;;;10.22;100.00
19086;BME280;9675;51.538;6.728;2023-03-14T05:33:22;98595.72;;;10.20;100.00
19086;BME280;9675;51.538;6.728;2023-03-14T05:35:49;98592.28;;;10.19;100.00
19086;BME280;9675;51.538;6.728;2023-03-14T05:38:16;98587.06;;;10.16;100.00
19086;BME280;9675;51.538;6.728;2023-03-14T05:40:45;98587.94;;;10.17;100.00
19086;BME280;9675;51.538;6.728;2023-03-14T05:43:12;98593.91;;;10.16;100.00
19086;BME280;9675;51.538;6.728;2023-03-14T05:45:41;98598.16;;;10.14;100.00
19086;BME280;9675;51.538;6.728;2023-03-14T05:48:09;98587.81;;;10.11;100.00
19086;BME280;9675;51.538;6.728;2023-03-14T05:50:37;98586.09;;;10.10;100.00
19086;BME280;9675;51.538;6.728;2023-03-14T05:53:05;98577.50;;;10.08;100.00
19086;BME280;9675;51.538;6.728;2023-03-14T05:55:32;98570.63;;;10.07;100.00
19086;BME280;9675;51.538;6.728;2023-03-14T05:57:59;98574.03;;;10.06;100.00
19086;BME280;9675;51.538;6.728;2023-03-14T06:00:27;98579.13;;;10.03;100.00
19086;BME280;9675;51.538;6.728;2023-03-14T06:02:54;98574.84;;;10.03;100.00
19086;BME280;9675;51.538;6.728;2023-03-14T06:05:21;98575.66;;;10.01;100.00
19086;BME280;9675;51.538;6.728;2023-03-14T06:07:49;98570.50;;;9.99;100.00
19086;BME280;9675;51.538;6.728;2023-03-14T06:10:17;98571.31;;;9.97;100.00
19086;BME280;9675;51.538;6.728;2023-03-14T06:12:43;98579.03;;;9.97;100.00
19086;BME280;9675;51.538;6.728;2023-03-14T06:15:11;98570.47;;;9.98;100.00
19086;BME280;9675;51.538;6.728;2023-03-14T06:17:38;98583.31;;;9.96;100.00
19086;BME280;9675;51.538;6.728;2023-03-14T06:20:06;98589.31;;;9.97;100.00
19086;BME280;9675;51.538;6.728;2023-03-14T06:22:33;98589.31;;;9.97;100.00
19086;BME280;9675;51.538;6.728;2023-03-14T06:25:02;98585.88;;;9.95;100.00
19086;BME280;9675;51.538;6.728;2023-03-14T06:27:30;98579.88;;;9.94;100.00
19086;BME280;9675;51.538;6.728;2023-03-14T06:29:57;98579.88;;;9.94;100.00
19086;BME280;9675;51.538;6.728;2023-03-14T06:32:24;98582.44;;;9.94;100.00
19086;BME280;9675;51.538;6.728;2023-03-14T06:34:51;98579.84;;;9.93;100.00
19086;BME280;9675;51.538;6.728;2023-03-14T06:37:19;98581.53;;;9.92;100.00
19086;BME280;9675;51.538;6.728;2023-03-14T06:39:46;98583.25;;;9.92;100.00
19086;BME280;9675;51.538;6.728;2023-03-14T06:42:14;98584.06;;;9.91;100.00
19086;BME280;9675;51.538;6.728;2023-03-14T06:44:41;98574.63;;;9.90;100.00
19086;BME280;9675;51.538;6.728;2023-03-14T06:47:08;98581.50;;;9.91;100.00
19086;BME280;9675;51.538;6.728;2023-03-14T06:49:35;98580.63;;;9.90;100.00
19086;BME280;9675;51.538;6.728;2023-03-14T06:52:03;98578.09;;;9.92;100.00
19086;BME280;9675;51.538;6.728;2023-03-14T06:54:30;98578.06;;;9.90;100.00
19086;BME280;9675;51.538;6.728;2023-03-14T06:56:57;98583.19;;;9.90;100.00
19086;BME280;9675;51.538;6.728;2023-03-14T06:59:25;98584.06;;;9.91;100.00
19086;BME280;9675;51.538;6.728;2023-03-14T07:01:52;98582.34;;;9.90;100.00
19086;BME280;9675;51.538;6.728;2023-03-14T07:04:19;98585.78;;;9.89;100.00
19086;BME280;9675;51.538;6.728;2023-03-14T07:06:46;98590.91;;;9.89;100.00
19086;BME280;9675;51.538;6.728;2023-03-14T07:09:15;98598.66;;;9.92;100.00
19086;BME280;9675;51.538;6.728;2023-03-14T07:11:43;98592.66;;;9.91;100.00
19086;BME280;9675;51.538;6.728;2023-03-14T07:14:10;98610.69;;;9.93;100.00
19086;BME280;9675;51.538;6.728;2023-03-14T07:16:39;98604.63;;;9.91;100.00
19086;BME280;9675;51.538;6.728;2023-03-14T07:19:06;98604.63;;;9.91;100.00
19086;BME280;9675;51.538;6.728;2023-03-14T07:21:33;98612.34;;;9.91;100.00
19086;BME280;9675;51.538;6.728;2023-03-14T07:24:00;98608.03;;;9.90;100.00
19086;BME280;9675;51.538;6.728;2023-03-14T07:26:27;98608.03;;;9.90;100.00
19086;BME280;9675;51.538;6.728;2023-03-14T07:28:54;98608.91;;;9.90;100.00
19086;BME280;9675;51.538;6.728;2023-03-14T07:31:21;98614.09;;;9.92;100.00
19086;BME280;9675;51.538;6.728;2023-03-14T07:33:50;98614.91;;;9.91;100.00
19086;BME280;9675;51.538;6.728;2023-03-14T07:36:17;98602.97;;;9.93;100.00
19086;BME280;9675;51.538;6.728;2023-03-14T07:38:44;98608.09;;;9.93;100.00
19086;BME280;9675;51.538;6.728;2023-03-14T07:41:11;98609.84;;;9.94;100.00
19086;BME280;9675;51.538;6.728;2023-03-14T07:43:38;98617.56;;;9.95;100.00
19086;BME280;9675;51.538;6.728;2023-03-14T07:46:06;98621.88;;;9.95;100.00
19086;BME280;9675;51.538;6.728;2023-03-14T07:48:33;98616.72;;;9.95;100.00
19086;BME280;9675;51.538;6.728;2023-03-14T07:51:02;98629.56;;;9.95;100.00
19086;BME280;9675;51.538;6.728;2023-03-14T07:53:29;98623.56;;;9.94;100.00
19086;BME280;9675;51.538;6.728;2023-03-14T07:55:56;98624.44;;;9.96;100.00
19086;BME280;9675;51.538;6.728;2023-03-14T07:58:23;98631.31;;;9.97;100.00
19086;BME280;9675;51.538;6.728;2023-03-14T08:00:51;98639.88;;;9.96;100.00
19086;BME280;9675;51.538;6.728;2023-03-14T08:03:19;98638.16;;;9.97;100.00
19086;BME280;9675;51.538;6.728;2023-03-14T08:05:48;98634.75;;;9.98;100.00
19086;BME280;9675;51.538;6.728;2023-03-14T08:08:17;98647.59;;;9.98;100.00
19086;BME280;9675;51.538;6.728;2023-03-14T08:10:45;98633.97;;;10.02;100.00
19086;BME280;9675;51.538;6.728;2023-03-14T08:13:13;98636.53;;;10.02;100.00
19086;BME280;9675;51.538;6.728;2023-03-14T08:15:40;98638.28;;;10.04;100.00
19086;BME280;9675;51.538;6.728;2023-03-14T08:18:07;98634.03;;;10.05;100.00
19086;BME280;9675;51.538;6.728;2023-03-14T08:20:35;98640.03;;;10.07;100.00
19086;BME280;9675;51.538;6.728;2023-03-14T08:23:03;98640.06;;;10.08;100.00
19086;BME280;9675;51.538;6.728;2023-03-14T08:25:31;98635.78;;;10.09;100.00
19086;BME280;9675;51.538;6.728;2023-03-14T08:27:58;98654.66;;;10.11;100.00
19086;BME280;9675;51.538;6.728;2023-03-14T08:30:26;98638.44;;;10.13;100.00
19086;BME280;9675;51.538;6.728;2023-03-14T08:32:53;98642.72;;;10.13;100.00
19086;BME280;9675;51.538;6.728;2023-03-14T08:35:20;98648.72;;;10.13;100.00
19086;BME280;9675;51.538;6.728;2023-03-14T08:37:47;98653.88;;;10.13;100.00
19086;BME280;9675;51.538;6.728;2023-03-14T08:40:14;98649.63;;;10.15;100.00
19086;BME280;9675;51.538;6.728;2023-03-14T08:42:45;98650.50;;;10.16;100.00
19086;BME280;9675;51.538;6.728;2023-03-14T08:45:15;98653.06;;;10.16;100.00
19086;BME280;9675;51.538;6.728;2023-03-14T08:47:43;98664.28;;;10.19;100.00
19086;BME280;9675;51.538;6.728;2023-03-14T08:50:12;98658.28;;;10.19;100.00
19086;BME280;9675;51.538;6.728;2023-03-14T08:52:39;98660.84;;;10.19;100.00
19086;BME280;9675;51.538;6.728;2023-03-14T08:55:08;98663.44;;;10.20;100.00
19086;BME280;9675;51.538;6.728;2023-03-14T08:57:35;98666.94;;;10.24;100.00
19086;BME280;9675;51.538;6.728;2023-03-14T09:00:06;98755.25;;;10.25;100.00
19086;BME280;9675;51.538;6.728;2023-03-14T09:02:36;98756.13;;;10.25;100.00
19086;BME280;9675;51.538;6.728;2023-03-14T09:05:04;98771.47;;;10.22;100.00
19086;BME280;9675;51.538;6.728;2023-03-14T09:07:31;98770.59;;;10.20;100.00
19086;BME280;9675;51.538;6.728;2023-03-14T09:09:58;98775.72;;;10.18;100.00
19086;BME280;9675;51.538;6.728;2023-03-14T09:12:25;98791.03;;;10.14;100.00
19086;BME280;9675;51.538;6.728;2023-03-14T09:14:52;98800.41;;;10.12;100.00
19086;BME280;9675;51.538;6.728;2023-03-14T09:17:21;98793.47;;;10.08;100.00
19086;BME280;9675;51.538;6.728;2023-03-14T09:19:48;98812.31;;;10.07;100.00
19086;BME280;9675;51.538;6.728;2023-03-14T09:22:15;98814.00;;;10.05;100.00
19086;BME280;9675;51.538;6.728;2023-03-14T09:24:42;98819.06;;;10.02;100.00
19086;BME280;9675;51.538;6.728;2023-03-14T09:27:09;98834.47;;;9.99;100.00
19086;BME280;9675;51.538;6.728;2023-03-14T09:29:36;98841.25;;;9.97;100.00
19086;BME280;9675;51.538;6.728;2023-03-14T09:32:03;98860.03;;;9.93;100.00
19086;BME280;9675;51.538;6.728;2023-03-14T09:34:32;98866.06;;;9.93;100.00
19086;BME280;9675;51.538;6.728;2023-03-14T09:37:00;98878.88;;;9.92;100.00
19086;BME280;9675;51.538;6.728;2023-03-14T09:39:27;98887.41;;;9.91;100.00
19086;BME280;9675;51.538;6.728;2023-03-14T09:41:57;98897.63;;;9.88;100.00
19086;BME280;9675;51.538;6.728;2023-03-14T09:44:31;98904.44;;;9.84;100.00
19086;BME280;9675;51.538;6.728;2023-03-14T09:47:03;98912.06;;;9.81;100.00
19086;BME280;9675;51.538;6.728;2023-03-14T09:49:36;98936.88;;;9.80;100.00
19086;BME280;9675;51.538;6.728;2023-03-14T09:52:12;98941.16;;;9.80;100.00
19086;BME280;9675;51.538;6.728;2023-03-14T09:54:45;98948.84;;;9.78;100.00
19086;BME280;9675;51.538;6.728;2023-03-14T09:57:17;98950.50;;;9.76;100.00
19086;BME280;9675;51.538;6.728;2023-03-14T09:59:47;98964.13;;;9.72;100.00
19086;BME280;9675;51.538;6.728;2023-03-14T10:02:18;98974.41;;;9.72;100.00
19086;BME280;9675;51.538;6.728;2023-03-14T10:04:50;98980.34;;;9.70;100.00
19086;BME280;9675;51.538;6.728;2023-03-14T10:07:27;98987.16;;;9.68;100.00
19086;BME280;9675;51.538;6.728;2023-03-14T10:09:56;99006.84;;;9.67;100.00
19086;BME280;9675;51.538;6.728;2023-03-14T10:12:31;99029.06;;;9.65;100.00
19086;BME280;9675;51.538;6.728;2023-03-14T10:15:05;99042.69;;;9.61;100.00
19086;BME280;9675;51.538;6.728;2023-03-14T10:17:40;99048.59;;;9.57;100.00
19086;BME280;9675;51.538;6.728;2023-03-14T10:20:28;99071.63;;;9.54;100.00
19086;BME280;9675;51.538;6.728;2023-03-14T10:22:59;99084.41;;;9.51;100.00
19086;BME280;9675;51.538;6.728;2023-03-14T10:25:30;99086.03;;;9.48;100.00
19086;BME280;9675;51.538;6.728;2023-03-14T10:27:57;99109.00;;;9.43;100.00
19086;BME280;9675;51.538;6.728;2023-03-14T10:30:37;99122.53;;;9.36;100.00
19086;BME280;9675;51.538;6.728;2023-03-14T10:33:18;99126.69;;;9.31;100.00
19086;BME280;9675;51.538;6.728;2023-03-14T10:35:53;99158.25;;;9.27;100.00
19086;BME280;9675;51.538;6.728;2023-03-14T10:38:27;99167.56;;;9.23;100.00
19086;BME280;9675;51.538;6.728;2023-03-14T10:40:56;99187.22;;;9.23;100.00
19086;BME280;9675;51.538;6.728;2023-03-14T10:43:27;99202.56;;;9.20;100.00
19086;BME280;9675;51.538;6.728;2023-03-14T10:45:57;99205.06;;;9.18;100.00
19086;BME280;9675;51.538;6.728;2023-03-14T10:48:33;99213.56;;;9.16;100.00
19086;BME280;9675;51.538;6.728;2023-03-14T10:51:07;99222.91;;;9.14;100.00
19086;BME280;9675;51.538;6.728;2023-03-14T10:53:44;99244.41;;;9.17;100.00
19086;BME280;9675;51.538;6.728;2023-03-14T10:56:13;99251.28;;;9.17;100.00
19086;BME280;9675;51.538;6.728;2023-03-14T10:58:43;99271.81;;;9.17;100.00
19086;BME280;9675;51.538;6.728;2023-03-14T11:01:30;99284.66;;;9.17;100.00
19086;BME280;9675;51.538;6.728;2023-03-14T11:04:15;99286.38;;;9.18;100.00
19086;BME280;9675;51.538;6.728;2023-03-14T11:06:55;99300.06;;;9.17;100.00
19086;BME280;9675;51.538;6.728;2023-03-14T11:09:30;99310.22;;;9.14;100.00
19086;BME280;9675;51.538;6.728;2023-03-14T11:12:15;99308.47;;;9.13;100.00
19086;BME280;9675;51.538;6.728;2023-03-14T11:14:55;99325.63;;;9.14;100.00
19086;BME280;9675;51.538;6.728;2023-03-14T11:17:30;99341.91;;;9.14;100.00
19086;BME280;9675;51.538;6.728;2023-03-14T11:20:22;99347.84;;;9.12;100.00
19086;BME280;9675;51.538;6.728;2023-03-14T11:23:04;99363.28;;;9.13;100.00
19086;BME280;9675;51.538;6.728;2023-03-14T11:25:43;99372.66;;;9.13;100.00
19086;BME280;9675;51.538;6.728;2023-03-14T11:28:22;99379.47;;;9.11;100.00
19086;BME280;9675;51.538;6.728;2023-03-14T11:30:55;99391.44;;;9.10;100.00
19086;BME280;9675;51.538;6.728;2023-03-14T11:33:31;99407.72;;;9.11;100.00
19086;BME280;9675;51.538;6.728;2023-03-14T11:36:06;99396.50;;;9.09;100.00
19086;BME280;9675;51.538;6.728;2023-03-14T11:38:40;99418.75;;;9.08;100.00
19086;BME280;9675;51.538;6.728;2023-03-14T11:41:15;99428.25;;;9.11;100.00
19086;BME280;9675;51.538;6.728;2023-03-14T11:43:48;99432.53;;;9.10;100.00
19086;BME280;9675;51.538;6.728;2023-03-14T11:46:21;99438.47;;;9.09;100.00
19086;BME280;9675;51.538;6.728;2023-03-14T11:49:00;99447.88;;;9.09;100.00
19086;BME280;9675;51.538;6.728;2023-03-14T11:51:34;99448.75;;;9.09;100.00
19086;BME280;9675;51.538;6.728;2023-03-14T11:54:14;99456.50;;;9.11;100.00
19086;BME280;9675;51.538;6.728;2023-03-14T11:56:50;99469.44;;;9.14;100.00
19086;BME280;9675;51.538;6.728;2023-03-14T11:59:27;99478.88;;;9.15;100.00
19086;BME280;9675;51.538;6.728;2023-03-14T12:02:03;99477.94;;;9.11;100.00
19086;BME280;9675;51.538;6.728;2023-03-14T12:04:48;99479.63;;;9.11;100.00
19086;BME280;9675;51.538;6.728;2023-03-14T12:07:21;99488.13;;;9.10;100.00
19086;BME280;9675;51.538;6.728;2023-03-14T12:09:53;99505.38;;;9.14;100.00
19086;BME280;9675;51.538;6.728;2023-03-14T12:12:24;99502.88;;;9.15;100.00
19086;BME280;9675;51.538;6.728;2023-03-14T12:14:56;99509.69;;;9.15;100.00
19086;BME280;9675;51.538;6.728;2023-03-14T12:17:33;99514.06;;;9.17;100.00
19086;BME280;9675;51.538;6.728;2023-03-14T12:20:05;99538.88;;;9.17;100.00
19086;BME280;9675;51.538;6.728;2023-03-14T12:22:45;99554.22;;;9.15;100.00
19086;BME280;9675;51.538;6.728;2023-03-14T12:25:19;99563.53;;;9.12;100.00
19086;BME280;9675;51.538;6.728;2023-03-14T12:28:13;99561.66;;;9.08;100.00
19086;BME280;9675;51.538;6.728;2023-03-14T12:30:43;99581.31;;;9.07;100.00
19086;BME280;9675;51.538;6.728;2023-03-14T12:33:30;99595.97;;;9.10;100.00
19086;BME280;9675;51.538;6.728;2023-03-14T12:39:25;99602.66;;;9.05;100.00
19086;BME280;9675;51.538;6.728;2023-03-14T12:42:05;99608.53;;;9.02;100.00
19086;BME280;9675;51.538;6.728;2023-03-14T12:44:46;99617.09;;;9.01;100.00
19086;BME280;9675;51.538;6.728;2023-03-14T12:47:47;99612.78;;;9.02;100.00
19086;BME280;9675;51.538;6.728;2023-03-14T12:50:26;99619.69;;;9.03;100.00
19086;BME280;9675;51.538;6.728;2023-03-14T12:56:18;99662.75;;;9.10;100.00
19086;BME280;9675;51.538;6.728;2023-03-14T12:59:05;99682.47;;;9.11;100.00
19086;BME280;9675;51.538;6.728;2023-03-14T13:01:36;99708.09;;;9.09;100.00
19086;BME280;9675;51.538;6.728;2023-03-14T13:04:08;99686.44;;;9.03;100.00
19086;BME280;9675;51.538;6.728;2023-03-14T13:06:50;99687.22;;;9.00;100.00
19086;BME280;9675;51.538;6.728;2023-03-14T13:09:54;99698.22;;;8.98;100.00
19086;BME280;9675;51.538;6.728;2023-03-14T13:12:29;99700.78;;;8.98;100.00
19086;BME280;9675;51.538;6.728;2023-03-14T13:15:01;99706.00;;;8.99;100.00
19086;BME280;9675;51.538;6.728;2023-03-14T13:17:41;99712.09;;;9.03;100.00
19086;BME280;9675;51.538;6.728;2023-03-14T13:20:16;99723.41;;;9.06;100.00
19086;BME280;9675;51.538;6.728;2023-03-14T13:22:48;99737.22;;;9.10;100.00
19086;BME280;9675;51.538;6.728;2023-03-14T13:25:17;99734.63;;;9.10;100.00
19086;BME280;9675;51.538;6.728;2023-03-14T13:27:47;99738.03;;;9.09;100.00